Hlavní strana
METAR-TAF:

METAR-TAF

Letiště :

Charleston, Jižní Karolína, Spojené státy americké

zeměpisná šířka: 32-42-03N, zeměpisná délka: 080-00-10W, výška: 5 m

Aktuální stav počasí

Zpráva byla vytvořena před 22 minutami, v 10:35 UTC
Bezvětří
Teplota 12°C
Vlhkost vzduchu 100%
Tlak 1019 hPa
Viditelnost: 9.7 km
Oblačno až skoro zataženo ve výšce 300 ft
Oblačno až skoro zataženo ve výšce 4600 ft
Oblačno až skoro zataženo ve výšce 5500 ft
kouřmo

METAR: KJZI 241035Z AUTO 00000KT 6SM BR BKN003 BKN046 BKN055 12/12 A3008 RMK AO2

Čas: 05:57 (10:57 UTC)


TAF: chybějící

Stav a předpovědi počasí z více než 4 000 letišť (zprávy METAR a TAF).

Červené a žluté tečky na mapě představují dostupné meteorologické stanice.

Když kurzor umístíte na tečku, zobrazí se název stanice.

Pak kliknutím zobrazíte stav a předpověď počasí.

Chcete-li změnit mapu, kliknutím na zelené tlačítko se znaménkem +mapu přiblížíte, kliknutím na zelené tlačítko se znaménkem – mapu oddálíte a kliknutím na zelené šipky přejdete na sousední mapy.


METAR-TAF: